sensor_id;sensor_type;location;lat;lon;timestamp;P1;durP1;ratioP1;P2;durP2;ratioP2
17199;SDS011;8716;52.268;20.968;2023-04-24T00:01:39;5.80;;;5.50;;
17199;SDS011;8716;52.268;20.968;2023-04-24T00:04:10;6.63;;;6.23;;
17199;SDS011;8716;52.268;20.968;2023-04-24T00:06:43;4.90;;;4.60;;
17199;SDS011;8716;52.268;20.968;2023-04-24T00:09:15;4.07;;;3.87;;
17199;SDS011;8716;52.268;20.968;2023-04-24T00:11:58;5.60;;;5.30;;
17199;SDS011;8716;52.268;20.968;2023-04-24T00:14:30;6.70;;;5.90;;
17199;SDS011;8716;52.268;20.968;2023-04-24T00:17:01;7.27;;;6.87;;
17199;SDS011;8716;52.268;20.968;2023-04-24T00:22:25;7.00;;;6.60;;
17199;SDS011;8716;52.268;20.968;2023-04-24T00:24:56;6.60;;;6.20;;
17199;SDS011;8716;52.268;20.968;2023-04-24T00:27:24;8.07;;;7.67;;
17199;SDS011;8716;52.268;20.968;2023-04-24T00:29:53;6.93;;;6.53;;
17199;SDS011;8716;52.268;20.968;2023-04-24T00:32:21;5.97;;;5.67;;
17199;SDS011;8716;52.268;20.968;2023-04-24T00:34:51;5.33;;;5.03;;
17199;SDS011;8716;52.268;20.968;2023-04-24T00:37:23;5.33;;;5.03;;
17199;SDS011;8716;52.268;20.968;2023-04-24T00:40:09;5.03;;;4.73;;
17199;SDS011;8716;52.268;20.968;2023-04-24T00:42:38;5.70;;;5.40;;
17199;SDS011;8716;52.268;20.968;2023-04-24T00:45:07;5.10;;;4.80;;
17199;SDS011;8716;52.268;20.968;2023-04-24T00:47:36;5.70;;;5.40;;
17199;SDS011;8716;52.268;20.968;2023-04-24T00:50:05;8.00;;;7.60;;
17199;SDS011;8716;52.268;20.968;2023-04-24T00:52:36;9.40;;;6.40;;
17199;SDS011;8716;52.268;20.968;2023-04-24T00:55:07;7.90;;;7.50;;
17199;SDS011;8716;52.268;20.968;2023-04-24T00:57:36;5.43;;;4.77;;
17199;SDS011;8716;52.268;20.968;2023-04-24T01:00:05;6.13;;;5.83;;
17199;SDS011;8716;52.268;20.968;2023-04-24T01:02:41;5.33;;;5.03;;
17199;SDS011;8716;52.268;20.968;2023-04-24T01:05:15;5.93;;;5.63;;
17199;SDS011;8716;52.268;20.968;2023-04-24T01:07:45;6.13;;;5.83;;
17199;SDS011;8716;52.268;20.968;2023-04-24T01:10:15;4.67;;;4.37;;
17199;SDS011;8716;52.268;20.968;2023-04-24T01:12:45;6.00;;;5.33;;
17199;SDS011;8716;52.268;20.968;2023-04-24T01:15:15;6.00;;;5.70;;
17199;SDS011;8716;52.268;20.968;2023-04-24T01:17:43;4.60;;;4.30;;
17199;SDS011;8716;52.268;20.968;2023-04-24T01:20:13;6.50;;;6.10;;
17199;SDS011;8716;52.268;20.968;2023-04-24T01:22:43;7.47;;;6.30;;
17199;SDS011;8716;52.268;20.968;2023-04-24T01:25:15;6.40;;;6.00;;
17199;SDS011;8716;52.268;20.968;2023-04-24T01:27:45;9.20;;;7.77;;
17199;SDS011;8716;52.268;20.968;2023-04-24T01:30:14;7.83;;;5.93;;
17199;SDS011;8716;52.268;20.968;2023-04-24T01:32:42;6.53;;;6.13;;
17199;SDS011;8716;52.268;20.968;2023-04-24T01:35:14;8.80;;;5.63;;
17199;SDS011;8716;52.268;20.968;2023-04-24T01:37:46;6.17;;;5.87;;
17199;SDS011;8716;52.268;20.968;2023-04-24T01:40:15;7.60;;;7.20;;
17199;SDS011;8716;52.268;20.968;2023-04-24T01:42:43;5.53;;;4.57;;
17199;SDS011;8716;52.268;20.968;2023-04-24T01:45:15;5.60;;;5.30;;
17199;SDS011;8716;52.268;20.968;2023-04-24T01:47:43;5.43;;;5.13;;
17199;SDS011;8716;52.268;20.968;2023-04-24T01:50:16;8.03;;;7.63;;
17199;SDS011;8716;52.268;20.968;2023-04-24T01:52:44;5.97;;;5.67;;
17199;SDS011;8716;52.268;20.968;2023-04-24T01:55:14;7.50;;;6.27;;
17199;SDS011;8716;52.268;20.968;2023-04-24T01:57:44;6.03;;;4.70;;
17199;SDS011;8716;52.268;20.968;2023-04-24T02:00:18;15.53;;;7.33;;
17199;SDS011;8716;52.268;20.968;2023-04-24T02:02:46;9.53;;;9.03;;
17199;SDS011;8716;52.268;20.968;2023-04-24T02:05:15;4.67;;;4.37;;
17199;SDS011;8716;52.268;20.968;2023-04-24T02:07:43;6.40;;;6.00;;
17199;SDS011;8716;52.268;20.968;2023-04-24T02:10:11;7.67;;;7.27;;
17199;SDS011;8716;52.268;20.968;2023-04-24T02:12:46;5.30;;;5.00;;
17199;SDS011;8716;52.268;20.968;2023-04-24T02:15:14;7.20;;;6.80;;
17199;SDS011;8716;52.268;20.968;2023-04-24T02:17:44;6.57;;;4.40;;
17199;SDS011;8716;52.268;20.968;2023-04-24T02:20:14;7.20;;;5.07;;
17199;SDS011;8716;52.268;20.968;2023-04-24T02:22:43;4.90;;;4.57;;
17199;SDS011;8716;52.268;20.968;2023-04-24T02:25:12;7.07;;;6.67;;
17199;SDS011;8716;52.268;20.968;2023-04-24T02:27:40;8.07;;;7.67;;
17199;SDS011;8716;52.268;20.968;2023-04-24T02:30:10;6.27;;;5.93;;
17199;SDS011;8716;52.268;20.968;2023-04-24T02:32:38;8.83;;;8.33;;
17199;SDS011;8716;52.268;20.968;2023-04-24T02:35:10;8.67;;;8.17;;
17199;SDS011;8716;52.268;20.968;2023-04-24T02:37:38;7.90;;;5.63;;
17199;SDS011;8716;52.268;20.968;2023-04-24T02:40:07;6.47;;;6.07;;
17199;SDS011;8716;52.268;20.968;2023-04-24T02:42:38;6.00;;;5.70;;
17199;SDS011;8716;52.268;20.968;2023-04-24T02:45:07;5.47;;;5.17;;
17199;SDS011;8716;52.268;20.968;2023-04-24T02:47:38;4.57;;;4.27;;
17199;SDS011;8716;52.268;20.968;2023-04-24T02:50:07;9.03;;;8.53;;
17199;SDS011;8716;52.268;20.968;2023-04-24T02:52:35;5.40;;;4.80;;
17199;SDS011;8716;52.268;20.968;2023-04-24T02:55:10;6.17;;;5.87;;
17199;SDS011;8716;52.268;20.968;2023-04-24T02:57:40;4.40;;;4.10;;
17199;SDS011;8716;52.268;20.968;2023-04-24T03:00:09;5.70;;;5.40;;
17199;SDS011;8716;52.268;20.968;2023-04-24T03:02:42;7.77;;;7.37;;
17199;SDS011;8716;52.268;20.968;2023-04-24T03:05:10;7.37;;;6.97;;
17199;SDS011;8716;52.268;20.968;2023-04-24T03:07:39;7.17;;;6.77;;
17199;SDS011;8716;52.268;20.968;2023-04-24T03:10:07;5.00;;;4.70;;
17199;SDS011;8716;52.268;20.968;2023-04-24T03:12:39;5.33;;;4.50;;
17199;SDS011;8716;52.268;20.968;2023-04-24T03:15:08;5.10;;;4.80;;
17199;SDS011;8716;52.268;20.968;2023-04-24T03:17:36;9.40;;;8.90;;
17199;SDS011;8716;52.268;20.968;2023-04-24T03:20:08;6.87;;;6.50;;
17199;SDS011;8716;52.268;20.968;2023-04-24T03:22:43;6.83;;;6.43;;
17199;SDS011;8716;52.268;20.968;2023-04-24T03:25:11;11.60;;;8.10;;
17199;SDS011;8716;52.268;20.968;2023-04-24T03:27:42;8.53;;;8.03;;
17199;SDS011;8716;52.268;20.968;2023-04-24T03:30:21;6.57;;;6.17;;
17199;SDS011;8716;52.268;20.968;2023-04-24T03:32:54;6.60;;;6.20;;
17199;SDS011;8716;52.268;20.968;2023-04-24T03:35:28;6.97;;;6.57;;
17199;SDS011;8716;52.268;20.968;2023-04-24T03:38:00;7.03;;;6.63;;
17199;SDS011;8716;52.268;20.968;2023-04-24T03:40:54;4.90;;;4.60;;
17199;SDS011;8716;52.268;20.968;2023-04-24T03:43:45;11.70;;;8.30;;
17199;SDS011;8716;52.268;20.968;2023-04-24T03:46:14;9.70;;;9.20;;
17199;SDS011;8716;52.268;20.968;2023-04-24T03:48:49;7.37;;;6.57;;
17199;SDS011;8716;52.268;20.968;2023-04-24T03:51:23;5.90;;;5.60;;
17199;SDS011;8716;52.268;20.968;2023-04-24T03:54:06;6.80;;;6.40;;
17199;SDS011;8716;52.268;20.968;2023-04-24T03:56:37;6.50;;;6.10;;
17199;SDS011;8716;52.268;20.968;2023-04-24T03:59:06;5.70;;;5.40;;
17199;SDS011;8716;52.268;20.968;2023-04-24T04:01:36;5.57;;;5.27;;
17199;SDS011;8716;52.268;20.968;2023-04-24T04:04:17;7.20;;;6.80;;
17199;SDS011;8716;52.268;20.968;2023-04-24T04:06:47;7.53;;;7.13;;
17199;SDS011;8716;52.268;20.968;2023-04-24T04:09:20;8.33;;;6.33;;
17199;SDS011;8716;52.268;20.968;2023-04-24T04:11:48;5.83;;;5.53;;
17199;SDS011;8716;52.268;20.968;2023-04-24T04:14:19;5.90;;;5.60;;
17199;SDS011;8716;52.268;20.968;2023-04-24T04:16:47;5.53;;;5.23;;
17199;SDS011;8716;52.268;20.968;2023-04-24T04:19:19;5.90;;;5.60;;
17199;SDS011;8716;52.268;20.968;2023-04-24T04:21:49;7.40;;;7.00;;
17199;SDS011;8716;52.268;20.968;2023-04-24T04:24:35;9.90;;;9.37;;
17199;SDS011;8716;52.268;20.968;2023-04-24T04:27:07;13.90;;;10.03;;
17199;SDS011;8716;52.268;20.968;2023-04-24T04:29:43;11.47;;;10.87;;
17199;SDS011;8716;52.268;20.968;2023-04-24T04:32:13;8.90;;;8.40;;
17199;SDS011;8716;52.268;20.968;2023-04-24T04:34:43;9.47;;;8.87;;
17199;SDS011;8716;52.268;20.968;2023-04-24T04:37:14;19.40;;;11.30;;
17199;SDS011;8716;52.268;20.968;2023-04-24T04:40:05;10.97;;;10.37;;
17199;SDS011;8716;52.268;20.968;2023-04-24T04:42:47;12.03;;;9.33;;
17199;SDS011;8716;52.268;20.968;2023-04-24T04:45:27;8.30;;;7.90;;
17199;SDS011;8716;52.268;20.968;2023-04-24T04:48:15;9.23;;;8.73;;
17199;SDS011;8716;52.268;20.968;2023-04-24T04:50:45;6.80;;;6.40;;
17199;SDS011;8716;52.268;20.968;2023-04-24T04:53:21;6.93;;;6.53;;
17199;SDS011;8716;52.268;20.968;2023-04-24T04:55:49;9.30;;;8.80;;
17199;SDS011;8716;52.268;20.968;2023-04-24T04:58:19;10.87;;;10.27;;
17199;SDS011;8716;52.268;20.968;2023-04-24T05:00:52;12.13;;;8.50;;
17199;SDS011;8716;52.268;20.968;2023-04-24T05:03:34;7.00;;;6.60;;
17199;SDS011;8716;52.268;20.968;2023-04-24T05:06:07;12.60;;;9.33;;
17199;SDS011;8716;52.268;20.968;2023-04-24T05:08:40;8.83;;;8.33;;
17199;SDS011;8716;52.268;20.968;2023-04-24T05:11:16;10.30;;;9.80;;
17199;SDS011;8716;52.268;20.968;2023-04-24T05:13:45;8.50;;;8.03;;
17199;SDS011;8716;52.268;20.968;2023-04-24T05:16:21;13.23;;;12.57;;
17199;SDS011;8716;52.268;20.968;2023-04-24T05:18:52;17.30;;;9.53;;
17199;SDS011;8716;52.268;20.968;2023-04-24T05:21:29;11.30;;;10.70;;
17199;SDS011;8716;52.268;20.968;2023-04-24T05:24:00;8.57;;;8.07;;
17199;SDS011;8716;52.268;20.968;2023-04-24T05:26:48;9.50;;;9.00;;
17199;SDS011;8716;52.268;20.968;2023-04-24T05:29:22;11.47;;;10.73;;
17199;SDS011;8716;52.268;20.968;2023-04-24T05:31:53;9.40;;;8.90;;
17199;SDS011;8716;52.268;20.968;2023-04-24T05:34:22;10.80;;;8.87;;
17199;SDS011;8716;52.268;20.968;2023-04-24T05:36:56;11.73;;;11.13;;
17199;SDS011;8716;52.268;20.968;2023-04-24T05:39:32;9.20;;;8.70;;
17199;SDS011;8716;52.268;20.968;2023-04-24T05:42:02;9.07;;;8.57;;
17199;SDS011;8716;52.268;20.968;2023-04-24T05:44:33;10.00;;;9.53;;
17199;SDS011;8716;52.268;20.968;2023-04-24T05:47:01;11.37;;;9.97;;
17199;SDS011;8716;52.268;20.968;2023-04-24T05:49:32;11.40;;;9.03;;
17199;SDS011;8716;52.268;20.968;2023-04-24T05:52:01;12.40;;;11.77;;
17199;SDS011;8716;52.268;20.968;2023-04-24T05:54:41;13.17;;;12.47;;
17199;SDS011;8716;52.268;20.968;2023-04-24T05:57:16;15.67;;;11.87;;
17199;SDS011;8716;52.268;20.968;2023-04-24T06:00:04;8.10;;;7.70;;
17199;SDS011;8716;52.268;20.968;2023-04-24T06:02:59;8.90;;;8.40;;
17199;SDS011;8716;52.268;20.968;2023-04-24T06:05:30;9.27;;;8.77;;
17199;SDS011;8716;52.268;20.968;2023-04-24T06:08:02;15.43;;;8.97;;
17199;SDS011;8716;52.268;20.968;2023-04-24T06:10:40;9.47;;;8.97;;
17199;SDS011;8716;52.268;20.968;2023-04-24T06:13:09;11.00;;;10.40;;
17199;SDS011;8716;52.268;20.968;2023-04-24T06:15:50;21.10;;;12.70;;
17199;SDS011;8716;52.268;20.968;2023-04-24T06:18:27;7.97;;;7.57;;
17199;SDS011;8716;52.268;20.968;2023-04-24T06:20:55;10.03;;;9.50;;
17199;SDS011;8716;52.268;20.968;2023-04-24T06:23:26;12.13;;;8.93;;
17199;SDS011;8716;52.268;20.968;2023-04-24T06:26:00;9.90;;;9.40;;
17199;SDS011;8716;52.268;20.968;2023-04-24T06:28:32;13.50;;;10.40;;
17199;SDS011;8716;52.268;20.968;2023-04-24T06:31:02;10.63;;;10.07;;
17199;SDS011;8716;52.268;20.968;2023-04-24T06:33:31;14.30;;;13.60;;
17199;SDS011;8716;52.268;20.968;2023-04-24T06:35:59;10.87;;;10.27;;
17199;SDS011;8716;52.268;20.968;2023-04-24T06:38:31;12.07;;;11.47;;
17199;SDS011;8716;52.268;20.968;2023-04-24T06:41:00;14.00;;;13.30;;
17199;SDS011;8716;52.268;20.968;2023-04-24T06:43:29;12.87;;;12.10;;
17199;SDS011;8716;52.268;20.968;2023-04-24T06:46:00;14.63;;;13.10;;
17199;SDS011;8716;52.268;20.968;2023-04-24T06:48:30;13.60;;;12.90;;
17199;SDS011;8716;52.268;20.968;2023-04-24T06:50:58;16.13;;;14.43;;
17199;SDS011;8716;52.268;20.968;2023-04-24T06:53:26;12.30;;;11.70;;
17199;SDS011;8716;52.268;20.968;2023-04-24T06:55:57;13.13;;;10.60;;
17199;SDS011;8716;52.268;20.968;2023-04-24T06:58:29;14.20;;;11.57;;
17199;SDS011;8716;52.268;20.968;2023-04-24T07:00:58;10.93;;;10.33;;
17199;SDS011;8716;52.268;20.968;2023-04-24T07:03:26;13.17;;;10.93;;
17199;SDS011;8716;52.268;20.968;2023-04-24T07:05:55;11.33;;;10.73;;
17199;SDS011;8716;52.268;20.968;2023-04-24T07:08:24;17.03;;;16.17;;
17199;SDS011;8716;52.268;20.968;2023-04-24T07:10:52;13.60;;;12.90;;
17199;SDS011;8716;52.268;20.968;2023-04-24T07:13:20;15.20;;;14.40;;
17199;SDS011;8716;52.268;20.968;2023-04-24T07:15:50;11.10;;;10.50;;
17199;SDS011;8716;52.268;20.968;2023-04-24T07:18:20;15.20;;;14.40;;
17199;SDS011;8716;52.268;20.968;2023-04-24T07:20:48;15.97;;;15.17;;
17199;SDS011;8716;52.268;20.968;2023-04-24T07:23:17;18.90;;;12.53;;
17199;SDS011;8716;52.268;20.968;2023-04-24T07:25:46;10.30;;;9.80;;
17199;SDS011;8716;52.268;20.968;2023-04-24T07:28:14;14.23;;;13.53;;
17199;SDS011;8716;52.268;20.968;2023-04-24T07:30:44;11.93;;;10.50;;
17199;SDS011;8716;52.268;20.968;2023-04-24T07:33:13;13.07;;;12.37;;
17199;SDS011;8716;52.268;20.968;2023-04-24T07:35:42;15.17;;;14.37;;
17199;SDS011;8716;52.268;20.968;2023-04-24T07:38:11;12.90;;;12.20;;
17199;SDS011;8716;52.268;20.968;2023-04-24T07:40:39;12.63;;;10.20;;
17199;SDS011;8716;52.268;20.968;2023-04-24T07:43:07;12.73;;;12.07;;
17199;SDS011;8716;52.268;20.968;2023-04-24T07:45:35;12.87;;;12.20;;
17199;SDS011;8716;52.268;20.968;2023-04-24T07:48:04;13.90;;;11.53;;
17199;SDS011;8716;52.268;20.968;2023-04-24T07:50:34;10.03;;;9.53;;
17199;SDS011;8716;52.268;20.968;2023-04-24T07:53:02;10.17;;;9.70;;
17199;SDS011;8716;52.268;20.968;2023-04-24T07:55:30;11.50;;;9.10;;
17199;SDS011;8716;52.268;20.968;2023-04-24T07:57:59;14.70;;;13.30;;
17199;SDS011;8716;52.268;20.968;2023-04-24T08:00:27;9.30;;;8.47;;
17199;SDS011;8716;52.268;20.968;2023-04-24T08:02:56;12.13;;;11.53;;
17199;SDS011;8716;52.268;20.968;2023-04-24T08:05:24;13.63;;;12.93;;
17199;SDS011;8716;52.268;20.968;2023-04-24T08:07:56;12.17;;;11.57;;
17199;SDS011;8716;52.268;20.968;2023-04-24T08:10:24;11.73;;;11.13;;
17199;SDS011;8716;52.268;20.968;2023-04-24T08:12:53;11.50;;;10.90;;
17199;SDS011;8716;52.268;20.968;2023-04-24T08:15:22;15.63;;;14.73;;
17199;SDS011;8716;52.268;20.968;2023-04-24T08:17:50;9.77;;;9.00;;
17199;SDS011;8716;52.268;20.968;2023-04-24T08:20:20;14.73;;;12.27;;
17199;SDS011;8716;52.268;20.968;2023-04-24T08:22:48;10.63;;;10.07;;
17199;SDS011;8716;52.268;20.968;2023-04-24T08:25:17;10.43;;;9.90;;
17199;SDS011;8716;52.268;20.968;2023-04-24T08:27:46;9.50;;;9.00;;
17199;SDS011;8716;52.268;20.968;2023-04-24T08:30:17;9.70;;;9.20;;
17199;SDS011;8716;52.268;20.968;2023-04-24T08:32:45;14.90;;;10.37;;
17199;SDS011;8716;52.268;20.968;2023-04-24T08:35:14;11.57;;;10.67;;
17199;SDS011;8716;52.268;20.968;2023-04-24T08:37:42;10.90;;;10.30;;
17199;SDS011;8716;52.268;20.968;2023-04-24T08:40:11;11.10;;;10.50;;
17199;SDS011;8716;52.268;20.968;2023-04-24T08:42:43;9.07;;;8.57;;
17199;SDS011;8716;52.268;20.968;2023-04-24T08:45:12;9.43;;;8.93;;
17199;SDS011;8716;52.268;20.968;2023-04-24T08:47:40;11.20;;;10.60;;
17199;SDS011;8716;52.268;20.968;2023-04-24T08:50:10;18.13;;;17.23;;
17199;SDS011;8716;52.268;20.968;2023-04-24T08:52:39;17.77;;;12.23;;
17199;SDS011;8716;52.268;20.968;2023-04-24T08:55:09;9.80;;;7.77;;
17199;SDS011;8716;52.268;20.968;2023-04-24T08:57:37;14.37;;;10.03;;
17199;SDS011;8716;52.268;20.968;2023-04-24T09:00:09;9.97;;;9.47;;
17199;SDS011;8716;52.268;20.968;2023-04-24T09:02:39;9.60;;;9.10;;
17199;SDS011;8716;52.268;20.968;2023-04-24T09:05:10;9.77;;;9.27;;
17199;SDS011;8716;52.268;20.968;2023-04-24T09:07:39;12.40;;;8.50;;
17199;SDS011;8716;52.268;20.968;2023-04-24T09:10:11;16.53;;;9.37;;
17199;SDS011;8716;52.268;20.968;2023-04-24T09:12:40;8.70;;;8.20;;
17199;SDS011;8716;52.268;20.968;2023-04-24T09:15:10;9.20;;;8.70;;
17199;SDS011;8716;52.268;20.968;2023-04-24T09:17:39;7.30;;;6.90;;
17199;SDS011;8716;52.268;20.968;2023-04-24T09:20:10;14.83;;;11.47;;
17199;SDS011;8716;52.268;20.968;2023-04-24T09:22:41;11.07;;;8.90;;
17199;SDS011;8716;52.268;20.968;2023-04-24T09:25:12;8.83;;;8.33;;
17199;SDS011;8716;52.268;20.968;2023-04-24T09:27:41;9.63;;;9.13;;
17199;SDS011;8716;52.268;20.968;2023-04-24T09:30:12;12.60;;;11.77;;
17199;SDS011;8716;52.268;20.968;2023-04-24T09:32:53;8.63;;;8.13;;
17199;SDS011;8716;52.268;20.968;2023-04-24T09:35:40;8.93;;;8.43;;
17199;SDS011;8716;52.268;20.968;2023-04-24T09:38:10;8.60;;;7.93;;
17199;SDS011;8716;52.268;20.968;2023-04-24T09:40:38;7.47;;;7.07;;
17199;SDS011;8716;52.268;20.968;2023-04-24T09:43:10;11.13;;;8.07;;
17199;SDS011;8716;52.268;20.968;2023-04-24T09:45:40;7.13;;;6.73;;
17199;SDS011;8716;52.268;20.968;2023-04-24T09:48:08;7.50;;;7.10;;
17199;SDS011;8716;52.268;20.968;2023-04-24T09:50:40;8.27;;;7.87;;
17199;SDS011;8716;52.268;20.968;2023-04-24T09:53:23;6.57;;;6.17;;
17199;SDS011;8716;52.268;20.968;2023-04-24T09:55:54;8.47;;;8.00;;
17199;SDS011;8716;52.268;20.968;2023-04-24T09:58:25;8.27;;;7.87;;
17199;SDS011;8716;52.268;20.968;2023-04-24T10:00:57;9.30;;;8.80;;
17199;SDS011;8716;52.268;20.968;2023-04-24T10:03:26;10.67;;;10.07;;
17199;SDS011;8716;52.268;20.968;2023-04-24T10:06:01;8.33;;;7.90;;
17199;SDS011;8716;52.268;20.968;2023-04-24T10:08:35;7.00;;;6.60;;
17199;SDS011;8716;52.268;20.968;2023-04-24T10:11:07;8.30;;;7.90;;
17199;SDS011;8716;52.268;20.968;2023-04-24T10:13:37;8.97;;;8.47;;
17199;SDS011;8716;52.268;20.968;2023-04-24T10:16:08;9.90;;;9.40;;
17199;SDS011;8716;52.268;20.968;2023-04-24T10:18:37;8.70;;;8.20;;
17199;SDS011;8716;52.268;20.968;2023-04-24T10:21:07;8.17;;;7.73;;
17199;SDS011;8716;52.268;20.968;2023-04-24T10:23:35;7.90;;;7.50;;
17199;SDS011;8716;52.268;20.968;2023-04-24T10:26:04;7.77;;;7.37;;
17199;SDS011;8716;52.268;20.968;2023-04-24T10:28:33;10.30;;;8.70;;
17199;SDS011;8716;52.268;20.968;2023-04-24T10:31:03;10.17;;;9.67;;
17199;SDS011;8716;52.268;20.968;2023-04-24T10:33:33;12.37;;;7.63;;
17199;SDS011;8716;52.268;20.968;2023-04-24T10:36:02;8.23;;;7.57;;
17199;SDS011;8716;52.268;20.968;2023-04-24T10:38:31;10.37;;;9.87;;
17199;SDS011;8716;52.268;20.968;2023-04-24T10:41:07;10.90;;;10.30;;
17199;SDS011;8716;52.268;20.968;2023-04-24T10:43:36;11.17;;;10.57;;
17199;SDS011;8716;52.268;20.968;2023-04-24T10:46:08;10.17;;;9.67;;
17199;SDS011;8716;52.268;20.968;2023-04-24T10:48:43;10.83;;;10.23;;
17199;SDS011;8716;52.268;20.968;2023-04-24T10:51:21;9.33;;;8.83;;
17199;SDS011;8716;52.268;20.968;2023-04-24T10:53:50;7.93;;;7.53;;
17199;SDS011;8716;52.268;20.968;2023-04-24T10:56:19;9.80;;;9.30;;
17199;SDS011;8716;52.268;20.968;2023-04-24T10:58:50;9.03;;;8.10;;
17199;SDS011;8716;52.268;20.968;2023-04-24T11:01:25;10.20;;;9.70;;
17199;SDS011;8716;52.268;20.968;2023-04-24T11:03:56;10.27;;;9.77;;
17199;SDS011;8716;52.268;20.968;2023-04-24T11:06:29;8.50;;;8.03;;
17199;SDS011;8716;52.268;20.968;2023-04-24T11:09:01;8.90;;;8.27;;
17199;SDS011;8716;52.268;20.968;2023-04-24T11:11:32;10.73;;;10.13;;
17199;SDS011;8716;52.268;20.968;2023-04-24T11:14:05;11.37;;;10.77;;
17199;SDS011;8716;52.268;20.968;2023-04-24T11:16:35;9.97;;;9.47;;
17199;SDS011;8716;52.268;20.968;2023-04-24T11:19:08;8.73;;;8.23;;
17199;SDS011;8716;52.268;20.968;2023-04-24T11:21:39;8.27;;;7.87;;
17199;SDS011;8716;52.268;20.968;2023-04-24T11:24:26;7.53;;;7.13;;
17199;SDS011;8716;52.268;20.968;2023-04-24T11:26:57;8.87;;;8.37;;
17199;SDS011;8716;52.268;20.968;2023-04-24T11:29:40;9.43;;;8.93;;
17199;SDS011;8716;52.268;20.968;2023-04-24T11:32:18;9.67;;;8.37;;
17199;SDS011;8716;52.268;20.968;2023-04-24T11:34:53;8.83;;;8.33;;
17199;SDS011;8716;52.268;20.968;2023-04-24T11:37:22;8.57;;;8.10;;
17199;SDS011;8716;52.268;20.968;2023-04-24T11:39:52;8.33;;;7.90;;
17199;SDS011;8716;52.268;20.968;2023-04-24T11:42:21;8.63;;;8.10;;
17199;SDS011;8716;52.268;20.968;2023-04-24T11:44:51;8.67;;;7.67;;
17199;SDS011;8716;52.268;20.968;2023-04-24T11:47:27;15.03;;;10.63;;
17199;SDS011;8716;52.268;20.968;2023-04-24T11:49:57;8.60;;;8.10;;
17199;SDS011;8716;52.268;20.968;2023-04-24T11:52:27;8.43;;;7.97;;
17199;SDS011;8716;52.268;20.968;2023-04-24T11:54:57;7.23;;;6.83;;
17199;SDS011;8716;52.268;20.968;2023-04-24T11:57:28;9.60;;;9.10;;
17199;SDS011;8716;52.268;20.968;2023-04-24T12:00:00;10.13;;;9.63;;
17199;SDS011;8716;52.268;20.968;2023-04-24T12:02:37;8.20;;;7.80;;
17199;SDS011;8716;52.268;20.968;2023-04-24T12:05:07;8.03;;;7.63;;
17199;SDS011;8716;52.268;20.968;2023-04-24T12:07:40;8.17;;;7.77;;
17199;SDS011;8716;52.268;20.968;2023-04-24T12:10:10;7.43;;;7.03;;
17199;SDS011;8716;52.268;20.968;2023-04-24T12:12:38;7.50;;;7.10;;
17199;SDS011;8716;52.268;20.968;2023-04-24T12:15:09;6.83;;;6.43;;
17199;SDS011;8716;52.268;20.968;2023-04-24T12:17:40;9.70;;;9.20;;
17199;SDS011;8716;52.268;20.968;2023-04-24T12:20:11;9.53;;;9.03;;
17199;SDS011;8716;52.268;20.968;2023-04-24T12:22:43;7.63;;;7.23;;
17199;SDS011;8716;52.268;20.968;2023-04-24T12:25:13;9.80;;;9.30;;
17199;SDS011;8716;52.268;20.968;2023-04-24T12:27:45;7.30;;;6.90;;
17199;SDS011;8716;52.268;20.968;2023-04-24T12:30:15;9.17;;;8.70;;
17199;SDS011;8716;52.268;20.968;2023-04-24T12:32:44;22.83;;;14.37;;
17199;SDS011;8716;52.268;20.968;2023-04-24T12:35:18;38.80;;;29.73;;
17199;SDS011;8716;52.268;20.968;2023-04-24T12:37:48;11.50;;;10.90;;
17199;SDS011;8716;52.268;20.968;2023-04-24T12:40:37;9.63;;;9.13;;
17199;SDS011;8716;52.268;20.968;2023-04-24T12:43:12;17.43;;;11.83;;
17199;SDS011;8716;52.268;20.968;2023-04-24T12:45:41;18.60;;;12.53;;
17199;SDS011;8716;52.268;20.968;2023-04-24T12:48:13;19.80;;;14.87;;
17199;SDS011;8716;52.268;20.968;2023-04-24T12:50:43;12.40;;;11.80;;
17199;SDS011;8716;52.268;20.968;2023-04-24T12:53:13;24.30;;;22.53;;
17199;SDS011;8716;52.268;20.968;2023-04-24T12:55:42;10.57;;;10.00;;
17199;SDS011;8716;52.268;20.968;2023-04-24T12:58:11;12.93;;;8.10;;
17199;SDS011;8716;52.268;20.968;2023-04-24T13:00:39;13.80;;;9.63;;
17199;SDS011;8716;52.268;20.968;2023-04-24T13:03:10;10.50;;;6.97;;
17199;SDS011;8716;52.268;20.968;2023-04-24T13:05:38;6.90;;;6.50;;
17199;SDS011;8716;52.268;20.968;2023-04-24T13:08:08;6.90;;;6.50;;
17199;SDS011;8716;52.268;20.968;2023-04-24T13:10:36;11.60;;;6.50;;
17199;SDS011;8716;52.268;20.968;2023-04-24T13:13:04;8.77;;;7.33;;
17199;SDS011;8716;52.268;20.968;2023-04-24T13:15:32;7.00;;;6.60;;
17199;SDS011;8716;52.268;20.968;2023-04-24T13:18:01;6.40;;;6.00;;
17199;SDS011;8716;52.268;20.968;2023-04-24T13:20:30;5.13;;;4.83;;
17199;SDS011;8716;52.268;20.968;2023-04-24T13:22:58;5.73;;;5.43;;
17199;SDS011;8716;52.268;20.968;2023-04-24T13:25:27;6.43;;;5.87;;
17199;SDS011;8716;52.268;20.968;2023-04-24T13:27:58;7.53;;;7.13;;
17199;SDS011;8716;52.268;20.968;2023-04-24T13:30:26;7.80;;;7.40;;
17199;SDS011;8716;52.268;20.968;2023-04-24T13:32:54;8.70;;;5.30;;
17199;SDS011;8716;52.268;20.968;2023-04-24T13:35:23;4.70;;;4.40;;
17199;SDS011;8716;52.268;20.968;2023-04-24T13:37:51;7.43;;;7.03;;
17199;SDS011;8716;52.268;20.968;2023-04-24T13:40:19;6.13;;;5.83;;
17199;SDS011;8716;52.268;20.968;2023-04-24T13:42:49;5.50;;;5.20;;
17199;SDS011;8716;52.268;20.968;2023-04-24T13:45:17;7.40;;;5.97;;
17199;SDS011;8716;52.268;20.968;2023-04-24T13:47:51;7.23;;;6.83;;
17199;SDS011;8716;52.268;20.968;2023-04-24T13:50:20;6.47;;;6.07;;
17199;SDS011;8716;52.268;20.968;2023-04-24T13:52:51;7.83;;;7.43;;
17199;SDS011;8716;52.268;20.968;2023-04-24T13:55:21;7.23;;;6.83;;
17199;SDS011;8716;52.268;20.968;2023-04-24T13:57:51;8.07;;;7.23;;
17199;SDS011;8716;52.268;20.968;2023-04-24T14:00:21;6.77;;;6.37;;
17199;SDS011;8716;52.268;20.968;2023-04-24T14:02:49;7.07;;;6.67;;
17199;SDS011;8716;52.268;20.968;2023-04-24T14:05:18;7.50;;;7.10;;
17199;SDS011;8716;52.268;20.968;2023-04-24T14:07:48;6.83;;;6.40;;
17199;SDS011;8716;52.268;20.968;2023-04-24T14:10:17;6.83;;;5.63;;
17199;SDS011;8716;52.268;20.968;2023-04-24T14:12:45;5.07;;;4.77;;
17199;SDS011;8716;52.268;20.968;2023-04-24T14:15:15;6.47;;;6.07;;
17199;SDS011;8716;52.268;20.968;2023-04-24T14:17:43;5.73;;;5.43;;
17199;SDS011;8716;52.268;20.968;2023-04-24T14:20:11;6.47;;;6.07;;
17199;SDS011;8716;52.268;20.968;2023-04-24T14:22:40;5.93;;;5.63;;
17199;SDS011;8716;52.268;20.968;2023-04-24T14:25:08;6.60;;;6.20;;
17199;SDS011;8716;52.268;20.968;2023-04-24T14:27:37;5.70;;;5.40;;
17199;SDS011;8716;52.268;20.968;2023-04-24T14:30:07;6.33;;;5.80;;
17199;SDS011;8716;52.268;20.968;2023-04-24T14:32:37;5.20;;;4.90;;
17199;SDS011;8716;52.268;20.968;2023-04-24T14:35:06;5.63;;;5.33;;
17199;SDS011;8716;52.268;20.968;2023-04-24T14:37:35;4.53;;;4.23;;
17199;SDS011;8716;52.268;20.968;2023-04-24T14:40:04;4.80;;;4.50;;
17199;SDS011;8716;52.268;20.968;2023-04-24T14:42:37;4.90;;;4.60;;
17199;SDS011;8716;52.268;20.968;2023-04-24T14:45:05;4.97;;;4.67;;
17199;SDS011;8716;52.268;20.968;2023-04-24T14:47:34;5.23;;;4.93;;
17199;SDS011;8716;52.268;20.968;2023-04-24T14:50:04;6.47;;;6.07;;
17199;SDS011;8716;52.268;20.968;2023-04-24T14:52:37;5.40;;;5.10;;
17199;SDS011;8716;52.268;20.968;2023-04-24T14:55:05;5.63;;;5.07;;
17199;SDS011;8716;52.268;20.968;2023-04-24T14:57:34;6.67;;;6.27;;
17199;SDS011;8716;52.268;20.968;2023-04-24T15:00:03;6.10;;;5.80;;
17199;SDS011;8716;52.268;20.968;2023-04-24T15:02:34;6.57;;;5.97;;
17199;SDS011;8716;52.268;20.968;2023-04-24T15:05:08;5.53;;;5.23;;
17199;SDS011;8716;52.268;20.968;2023-04-24T15:07:37;8.00;;;5.60;;